Coopersville, New York
Current Conditions -  °F | °C
As of 8:35 AM on Sunday 23 Nov 2014 (Local Time) from KFSO Reporting Station
Drizzle Drizzle  
Wind Chill: 38°   Ceiling: 1500
Heat Index: 38°   Visibility: 2mi
Dew Point: 38°   Wind: 0mph
Humidity: 97%   Direction: NA
Pressure: 30.04"   Gusts: NA
Location:  44.9684°N, 73.45°W
Report Text: KFSO 231335Z AUTO 00000KT 2SM -DZ OVC015 04/03 A3004 RMK AO2 T00360031
Loading
Personal Weather Stations






























Interactive Weather Map New forecast layout! Learn more

10-Day Weather Forecast

Advertisements
Track Severe Weather on mobile